Time;durP1;ratioP1;P1;durP2;ratioP2;P2;SDS_P1;SDS_P2;PMS_P1;PMS_P2;Temp;Humidity;BMP_temperature;BMP_pressure;BME280_temperature;BME280_humidity;BME280_pressure;Samples;Min_cycle;Max_cycle;Signal;HPM_P1;HPM_P2
2022/07/12 00:01:06;;;;;;;3.97;2.93;;;15.30;99.90;;;;;;5072320;28;20171;-71
2022/07/12 00:03:33;;;;;;;3.00;2.70;;;15.20;99.90;;;;;;5072146;28;20400;-71
2022/07/12 00:05:58;;;;;;;3.70;2.77;;;15.20;99.90;;;;;;5072488;28;20181;-72
2022/07/12 00:08:24;;;;;;;3.40;3.00;;;15.10;99.90;;;;;;5073414;28;20980;-72
2022/07/12 00:10:50;;;;;;;5.33;4.63;;;15.10;99.90;;;;;;5073858;28;20217;-72
2022/07/12 00:13:16;;;;;;;5.10;3.20;;;15.00;99.90;;;;;;5072463;28;20218;-71
2022/07/12 00:15:42;;;;;;;3.63;3.20;;;15.00;99.90;;;;;;5071909;28;20216;-71
2022/07/12 00:18:09;;;;;;;4.83;3.70;;;14.90;99.90;;;;;;5070780;28;20566;-71
2022/07/12 00:20:36;;;;;;;3.20;2.90;;;14.90;99.90;;;;;;5072176;28;21116;-71
2022/07/12 00:23:02;;;;;;;3.80;3.27;;;14.90;99.90;;;;;;5071993;28;20412;-71
2022/07/12 00:25:28;;;;;;;3.97;3.57;;;14.80;99.90;;;;;;5071857;28;20440;-71
2022/07/12 00:27:53;;;;;;;5.13;3.17;;;14.80;99.90;;;;;;5073317;28;20436;-72
2022/07/12 00:30:19;;;;;;;5.30;4.30;;;14.80;99.90;;;;;;5073438;28;20212;-72
2022/07/12 00:32:44;;;;;;;3.50;3.20;;;14.70;99.90;;;;;;5072965;28;20198;-71
2022/07/12 00:35:10;;;;;;;3.83;2.87;;;14.80;99.90;;;;;;5070393;28;20170;-71
2022/07/12 00:37:36;;;;;;;3.80;3.00;;;14.70;99.90;;;;;;5071962;28;20170;-70
2022/07/12 00:40:08;;;;;;;3.73;3.10;;;14.70;99.90;;;;;;5071839;28;20244;-71
2022/07/12 00:42:38;;;;;;;4.67;4.07;;;14.70;99.90;;;;;;5071907;28;20901;-71
2022/07/12 00:45:05;;;;;;;5.50;3.50;;;14.60;99.90;;;;;;5071620;28;20401;-71
2022/07/12 00:47:37;;;;;;;4.17;3.50;;;14.60;99.90;;;;;;5071569;28;20412;-71
2022/07/12 00:50:07;;;;;;;5.10;3.43;;;14.60;99.90;;;;;;5071692;28;20422;-71
2022/07/12 00:52:33;;;;;;;3.00;2.70;;;14.60;99.90;;;;;;5071689;28;20452;-71
2022/07/12 00:54:59;;;;;;;4.00;2.60;;;14.50;99.90;;;;;;5070169;28;20485;-71
2022/07/12 00:57:24;;;;;;;5.00;3.43;;;14.50;99.90;;;;;;5071737;28;20163;-71
2022/07/12 00:59:50;;;;;;;8.13;4.97;;;14.50;99.90;;;;;;5072013;28;20193;-71
2022/07/12 01:02:16;;;;;;;5.20;4.03;;;14.50;99.90;;;;;;5075873;28;20170;-71
2022/07/12 01:04:44;;;;;;;4.93;3.63;;;14.50;99.90;;;;;;5075472;28;20574;-71
2022/07/12 01:07:09;;;;;;;4.07;3.27;;;14.40;99.90;;;;;;5075709;28;20443;-71
2022/07/12 01:09:35;;;;;;;4.17;3.47;;;14.40;99.90;;;;;;5076915;28;20428;-72
2022/07/12 01:12:01;;;;;;;5.93;3.57;;;14.40;99.90;;;;;;5076632;28;20197;-71
2022/07/12 01:14:28;;;;;;;4.30;3.90;;;14.30;99.90;;;;;;5075226;28;20162;-71
2022/07/12 01:16:54;;;;;;;3.30;3.00;;;14.30;99.90;;;;;;5074280;28;20436;-71
2022/07/12 01:19:20;;;;;;;3.90;3.60;;;14.20;99.90;;;;;;5075431;28;20416;-71
2022/07/12 01:21:51;;;;;;;3.90;3.50;;;14.20;99.90;;;;;;5075489;28;20490;-71
2022/07/12 01:24:19;;;;;;;5.17;3.90;;;14.20;99.90;;;;;;5075125;28;20416;-71
2022/07/12 01:26:46;;;;;;;5.20;4.00;;;14.10;99.90;;;;;;5075365;28;20488;-71
2022/07/12 01:29:12;;;;;;;4.87;4.07;;;14.10;99.90;;;;;;5075321;28;20527;-71
2022/07/12 01:31:38;;;;;;;4.40;3.87;;;14.00;99.90;;;;;;5075081;28;20537;-71
2022/07/12 01:34:04;;;;;;;4.00;3.47;;;14.00;99.90;;;;;;5075219;28;20510;-71
2022/07/12 01:36:30;;;;;;;5.23;4.67;;;13.90;99.90;;;;;;5074834;28;20189;-71
2022/07/12 01:38:56;;;;;;;4.87;4.37;;;13.90;99.90;;;;;;5073751;28;20240;-71
2022/07/12 01:41:23;;;;;;;4.60;3.40;;;13.90;99.90;;;;;;5074916;28;20416;-71
2022/07/12 01:43:50;;;;;;;4.73;3.60;;;13.90;99.90;;;;;;5075028;28;20170;-71
2022/07/12 01:46:16;;;;;;;5.00;3.73;;;13.80;99.90;;;;;;5074737;28;20412;-71
2022/07/12 01:48:41;;;;;;;4.10;3.60;;;13.80;99.90;;;;;;5075166;28;20987;-71
2022/07/12 01:51:07;;;;;;;5.40;4.20;;;13.80;99.90;;;;;;5075879;28;20563;-72
2022/07/12 01:53:34;;;;;;;6.23;4.83;;;13.70;99.90;;;;;;5075098;28;20260;-72
2022/07/12 01:56:00;;;;;;;5.33;4.23;;;13.70;99.90;;;;;;5075058;28;20171;-71
2022/07/12 01:58:26;;;;;;;7.07;4.60;;;13.60;99.90;;;;;;5073541;28;20607;-71
2022/07/12 02:00:52;;;;;;;4.97;4.03;;;13.60;99.90;;;;;;5073991;28;20405;-72
2022/07/12 02:03:18;;;;;;;6.50;4.10;;;13.60;99.90;;;;;;5075233;28;20178;-72
2022/07/12 02:05:44;;;;;;;4.87;4.37;;;13.60;99.90;;;;;;5073964;28;20405;-71
2022/07/12 02:08:10;;;;;;;5.53;4.80;;;13.60;99.90;;;;;;5073316;28;20765;-71
2022/07/12 02:10:35;;;;;;;5.60;4.30;;;13.60;99.90;;;;;;5073031;28;20412;-71
2022/07/12 02:13:04;;;;;;;5.30;4.10;;;13.60;99.90;;;;;;5073251;28;20309;-71
2022/07/12 02:15:31;;;;;;;4.87;4.00;;;13.50;99.90;;;;;;5075044;28;20212;-72
2022/07/12 02:17:56;;;;;;;4.90;3.40;;;13.50;99.90;;;;;;5074871;28;20439;-72
2022/07/12 02:20:22;;;;;;;4.77;4.10;;;13.50;99.90;;;;;;5073414;28;20455;-72
2022/07/12 02:22:48;;;;;;;4.13;3.63;;;13.40;99.90;;;;;;5074944;28;20253;-73
2022/07/12 02:25:13;;;;;;;6.07;4.40;;;13.40;99.90;;;;;;5073004;28;20174;-71
2022/07/12 02:27:40;;;;;;;5.37;4.90;;;13.40;99.90;;;;;;5073106;28;20209;-72
2022/07/12 02:30:07;;;;;;;4.03;3.43;;;13.40;99.90;;;;;;5073080;28;20194;-71
2022/07/12 02:32:33;;;;;;;7.43;3.70;;;13.40;99.90;;;;;;5072772;28;20714;-71
2022/07/12 02:34:58;;;;;;;5.60;3.83;;;13.40;99.90;;;;;;5073967;28;20820;-72
2022/07/12 02:37:24;;;;;;;4.90;3.60;;;13.40;99.90;;;;;;5073629;28;20204;-72
2022/07/12 02:39:50;;;;;;;4.70;3.90;;;13.40;99.90;;;;;;5074737;28;20682;-72
2022/07/12 02:42:15;;;;;;;5.60;4.80;;;13.40;99.90;;;;;;5074141;28;20420;-71
2022/07/12 02:44:41;;;;;;;4.53;3.87;;;13.30;99.90;;;;;;5072667;28;20253;-71
2022/07/12 02:47:07;;;;;;;4.57;3.90;;;13.30;99.90;;;;;;5072865;28;20246;-71
2022/07/12 02:49:32;;;;;;;3.87;3.57;;;13.30;99.90;;;;;;5072740;28;20194;-71
2022/07/12 02:51:58;;;;;;;4.43;3.20;;;13.30;99.90;;;;;;5035820;28;1051611;-71
2022/07/12 02:54:23;;;;;;;5.90;4.10;;;13.30;99.90;;;;;;5073503;28;20534;-72
2022/07/12 02:56:49;;;;;;;5.07;3.73;;;13.20;99.90;;;;;;5073705;28;20605;-71
2022/07/12 02:59:15;;;;;;;4.03;3.63;;;13.20;99.90;;;;;;5073504;28;20675;-72
2022/07/12 03:01:41;;;;;;;8.60;3.17;;;13.20;99.90;;;;;;5073879;28;20162;-71
2022/07/12 03:04:06;;;;;;;3.43;3.03;;;13.20;99.90;;;;;;5075211;28;20890;-72
2022/07/12 03:06:32;;;;;;;3.80;3.50;;;13.20;99.90;;;;;;5073619;28;20228;-71
2022/07/12 03:08:57;;;;;;;5.13;3.47;;;13.20;99.90;;;;;;5073315;28;20590;-71
2022/07/12 03:11:23;;;;;;;3.90;3.50;;;13.10;99.90;;;;;;5073445;28;20170;-71
2022/07/12 03:13:49;;;;;;;4.23;3.60;;;13.10;99.90;;;;;;5071858;28;20194;-71
2022/07/12 03:16:14;;;;;;;5.83;4.20;;;13.10;99.90;;;;;;5073059;28;20165;-71
2022/07/12 03:18:40;;;;;;;4.10;3.70;;;13.10;99.90;;;;;;5073214;28;20178;-71
2022/07/12 03:21:07;;;;;;;3.53;3.00;;;13.00;99.90;;;;;;5073223;28;20159;-71
2022/07/12 03:23:32;;;;;;;4.20;3.67;;;13.00;99.90;;;;;;5072253;28;20397;-71
2022/07/12 03:25:58;;;;;;;3.70;2.77;;;13.00;99.90;;;;;;5072817;28;20174;-71
2022/07/12 03:28:25;;;;;;;3.80;3.27;;;13.00;99.90;;;;;;5072976;28;20643;-71
2022/07/12 03:30:51;;;;;;;4.20;3.10;;;13.00;99.90;;;;;;5073042;28;20166;-72
2022/07/12 03:33:16;;;;;;;3.80;3.40;;;13.10;99.90;;;;;;5072932;28;20478;-71
2022/07/12 03:35:42;;;;;;;4.43;3.40;;;13.10;99.90;;;;;;5072623;28;20162;-71
2022/07/12 03:38:07;;;;;;;4.80;3.50;;;13.10;99.90;;;;;;5072743;28;20170;-71
2022/07/12 03:40:36;;;;;;;4.47;3.60;;;13.10;99.90;;;;;;5072922;28;20176;-71
2022/07/12 03:43:01;;;;;;;4.10;3.17;;;13.10;99.90;;;;;;5074135;28;20170;-72
2022/07/12 03:45:27;;;;;;;5.13;3.33;;;13.10;99.90;;;;;;5072637;28;20405;-71
2022/07/12 03:47:52;;;;;;;3.40;2.80;;;13.00;99.90;;;;;;5071851;28;20205;-71
2022/07/12 03:50:18;;;;;;;4.90;3.80;;;13.10;99.90;;;;;;5073601;28;20202;-72
2022/07/12 03:52:44;;;;;;;5.13;3.80;;;13.10;99.90;;;;;;5073728;28;20257;-72
2022/07/12 03:55:11;;;;;;;3.43;3.13;;;13.10;99.90;;;;;;5073442;28;20166;-72
2022/07/12 03:57:37;;;;;;;4.27;3.53;;;13.10;99.90;;;;;;5073222;28;20166;-71
2022/07/12 04:00:11;;;;;;;5.43;4.53;;;13.10;99.90;;;;;;5072367;28;20432;-71
2022/07/12 04:02:37;;;;;;;5.70;4.33;;;13.10;99.90;;;;;;5072422;28;20500;-71
2022/07/12 04:05:04;;;;;;;4.67;4.10;;;13.10;99.90;;;;;;5072032;28;20833;-71
2022/07/12 04:07:29;;;;;;;3.60;3.30;;;13.10;99.90;;;;;;5072321;28;20416;-71
2022/07/12 04:09:55;;;;;;;4.70;4.30;;;13.10;99.90;;;;;;5072254;28;20424;-71
2022/07/12 04:12:20;;;;;;;3.30;3.00;;;13.10;99.90;;;;;;5072228;28;20197;-71
2022/07/12 04:14:46;;;;;;;4.33;3.70;;;13.10;99.90;;;;;;5072404;28;20249;-71
2022/07/12 04:17:12;;;;;;;6.07;5.40;;;13.10;99.90;;;;;;5073042;28;20254;-71
2022/07/12 04:19:37;;;;;;;3.70;3.33;;;13.10;99.90;;;;;;5072866;28;20190;-72
2022/07/12 04:22:03;;;;;;;3.23;2.93;;;13.20;99.90;;;;;;5072359;28;20166;-71
2022/07/12 04:24:28;;;;;;;4.00;3.30;;;13.30;99.90;;;;;;5071879;28;20300;-70
2022/07/12 04:26:54;;;;;;;4.97;3.97;;;13.30;99.90;;;;;;5072104;28;20164;-71
2022/07/12 04:29:20;;;;;;;3.83;3.10;;;13.40;99.90;;;;;;5072784;28;20213;-71
2022/07/12 04:31:46;;;;;;;4.20;3.10;;;13.40;99.90;;;;;;5072706;28;20162;-72
2022/07/12 04:34:16;;;;;;;4.13;3.73;;;13.40;99.90;;;;;;5072645;28;20420;-72
2022/07/12 04:36:42;;;;;;;4.33;3.30;;;13.40;99.90;;;;;;5072603;28;20167;-71
2022/07/12 04:39:08;;;;;;;5.20;4.20;;;13.50;99.90;;;;;;5072025;28;20431;-71
2022/07/12 04:41:33;;;;;;;4.70;4.00;;;13.60;99.90;;;;;;5072206;28;20401;-71
2022/07/12 04:44:02;;;;;;;4.67;4.17;;;13.70;99.90;;;;;;5071915;28;20178;-71
2022/07/12 04:46:27;;;;;;;5.77;4.73;;;13.70;99.90;;;;;;5071507;28;20705;-71
2022/07/12 04:48:53;;;;;;;5.00;4.50;;;13.80;99.90;;;;;;5071833;28;20432;-71
2022/07/12 04:51:18;;;;;;;4.87;3.90;;;13.90;99.90;;;;;;5071915;28;20170;-71
2022/07/12 04:53:44;;;;;;;3.37;3.07;;;14.00;99.90;;;;;;5071694;28;20205;-71
2022/07/12 04:56:09;;;;;;;3.50;3.20;;;14.00;99.90;;;;;;5073069;28;20173;-72
2022/07/12 04:58:35;;;;;;;4.60;3.70;;;14.20;99.90;;;;;;5073579;28;20235;-72
2022/07/12 05:01:01;;;;;;;4.60;4.07;;;14.20;99.90;;;;;;5073571;28;20249;-72
2022/07/12 05:03:26;;;;;;;5.83;4.07;;;14.40;99.90;;;;;;5072921;28;20315;-72
2022/07/12 05:05:56;;;;;;;5.63;4.83;;;14.50;99.90;;;;;;5071446;28;20408;-71
2022/07/12 05:08:22;;;;;;;4.60;4.10;;;14.60;99.90;;;;;;5071662;28;20253;-71
2022/07/12 05:10:48;;;;;;;6.30;5.17;;;14.70;99.90;;;;;;5071758;28;21197;-71
2022/07/12 05:13:13;;;;;;;5.57;4.93;;;14.80;99.90;;;;;;5071958;28;20254;-72
2022/07/12 05:15:39;;;;;;;7.27;4.27;;;15.00;99.90;;;;;;5072504;28;20463;-72
2022/07/12 05:18:04;;;;;;;12.93;4.87;;;15.00;99.90;;;;;;5071566;28;20515;-71
2022/07/12 05:20:30;;;;;;;7.03;5.07;;;15.10;99.90;;;;;;5071630;28;20255;-71
2022/07/12 05:22:56;;;;;;;5.63;5.10;;;15.20;99.90;;;;;;5071544;28;20176;-71
2022/07/12 05:25:21;;;;;;;5.97;5.40;;;15.30;99.90;;;;;;5071312;28;20171;-71
2022/07/12 05:27:47;;;;;;;5.30;4.77;;;15.40;99.90;;;;;;5070242;28;20198;-71
2022/07/12 05:30:12;;;;;;;6.70;5.50;;;15.40;99.90;;;;;;5071329;28;20186;-71
2022/07/12 05:32:38;;;;;;;9.90;5.47;;;15.50;99.90;;;;;;5071394;28;20194;-71
2022/07/12 05:35:04;;;;;;;6.90;5.90;;;15.60;99.90;;;;;;5071129;28;20508;-71
2022/07/12 05:37:30;;;;;;;8.60;5.57;;;15.70;99.90;;;;;;5071399;28;20787;-71
2022/07/12 05:39:55;;;;;;;11.70;5.00;;;15.80;99.90;;;;;;5071356;28;20424;-72
2022/07/12 05:42:21;;;;;;;5.90;5.30;;;16.00;99.90;;;;;;5071422;28;20177;-70
2022/07/12 05:44:46;;;;;;;7.90;5.00;;;16.10;99.90;;;;;;5070999;28;20167;-71
2022/07/12 05:47:12;;;;;;;7.97;6.30;;;16.30;99.90;;;;;;5073829;28;20253;-71
2022/07/12 05:49:38;;;;;;;5.73;4.57;;;16.50;99.90;;;;;;5074890;28;20194;-71
2022/07/12 05:54:48;;;;;;;7.73;5.57;;;16.80;99.90;;;;;;5074828;28;20658;-72
2022/07/12 05:57:17;;;;;;;5.90;4.90;;;17.10;99.90;;;;;;5074797;28;20397;-71
2022/07/12 05:59:43;;;;;;;5.43;4.63;;;17.30;99.90;;;;;;5073421;28;20320;-71
2022/07/12 06:02:09;;;;;;;7.47;5.47;;;17.60;99.90;;;;;;5074774;28;20404;-72
2022/07/12 06:04:35;;;;;;;6.63;5.13;;;17.90;99.90;;;;;;5074277;28;21148;-71
2022/07/12 06:07:01;;;;;;;4.97;4.40;;;18.20;99.90;;;;;;5074742;28;20223;-71
2022/07/12 06:09:27;;;;;;;6.70;4.50;;;18.60;99.90;;;;;;5074502;28;20424;-72
2022/07/12 06:11:52;;;;;;;5.73;5.13;;;18.90;99.90;;;;;;5074547;28;20171;-72
2022/07/12 06:14:18;;;;;;;6.00;4.03;;;19.30;99.90;;;;;;5074165;28;20190;-72
2022/07/12 06:16:43;;;;;;;9.73;4.80;;;19.70;99.90;;;;;;5074504;28;20158;-72
2022/07/12 06:19:09;;;;;;;4.07;3.67;;;20.00;99.90;;;;;;5074232;28;20197;-72
2022/07/12 06:21:34;;;;;;;6.00;4.97;;;20.50;99.90;;;;;;5074801;28;20237;-73
2022/07/12 06:24:00;;;;;;;5.13;3.90;;;21.00;99.90;;;;;;5074350;28;20193;-72
2022/07/12 06:26:25;;;;;;;4.60;4.13;;;21.50;99.90;;;;;;5074001;28;20178;-72
2022/07/12 06:28:51;;;;;;;5.40;4.40;;;21.90;99.90;;;;;;5074088;28;20538;-72
2022/07/12 06:31:17;;;;;;;5.47;4.97;;;22.40;99.90;;;;;;5072854;28;20631;-72
2022/07/12 06:33:43;;;;;;;5.50;4.83;;;22.90;99.90;;;;;;5074028;28;20671;-72
2022/07/12 06:36:08;;;;;;;5.57;3.97;;;23.60;99.90;;;;;;5073748;28;20170;-72
2022/07/12 06:38:34;;;;;;;4.93;4.37;;;23.90;99.90;;;;;;5073969;28;20235;-72
2022/07/12 06:40:59;;;;;;;5.10;4.60;;;24.30;99.90;;;;;;5073968;28;20535;-72
2022/07/12 06:43:25;;;;;;;7.03;5.30;;;24.80;99.90;;;;;;5073941;28;20174;-72
2022/07/12 06:45:51;;;;;;;5.83;5.00;;;25.10;99.90;;;;;;5073637;28;20178;-72
2022/07/12 06:48:17;;;;;;;5.47;4.00;;;25.60;99.90;;;;;;5073831;28;20731;-72
2022/07/12 06:50:42;;;;;;;5.50;4.20;;;26.20;99.90;;;;;;5073866;28;20206;-72
2022/07/12 06:53:11;;;;;;;6.60;4.40;;;26.70;99.90;;;;;;5073627;28;20213;-72
2022/07/12 06:55:37;;;;;;;4.77;4.37;;;27.40;99.90;;;;;;5073485;28;20569;-73
2022/07/12 06:58:02;;;;;;;4.60;4.20;;;28.00;99.90;;;;;;5072468;28;20415;-73
2022/07/12 07:00:28;;;;;;;5.13;4.60;;;28.60;99.90;;;;;;5073539;28;20255;-72
2022/07/12 07:02:53;;;;;;;4.93;4.27;;;29.40;99.90;;;;;;5072372;28;20239;-73
2022/07/12 07:05:19;;;;;;;4.80;4.40;;;29.90;98.00;;;;;;5073172;28;20643;-72
2022/07/12 07:07:45;;;;;;;5.20;4.17;;;30.40;94.10;;;;;;5073522;28;20250;-72
2022/07/12 07:10:10;;;;;;;3.80;3.50;;;30.70;91.90;;;;;;5073327;28;20432;-73
2022/07/12 07:12:36;;;;;;;2.80;2.60;;;31.20;89.90;;;;;;5073340;28;20280;-73
2022/07/12 07:15:02;;;;;;;3.20;2.90;;;31.80;80.40;;;;;;5073068;28;20622;-73
2022/07/12 07:17:28;;;;;;;3.80;3.40;;;32.20;78.10;;;;;;5071990;28;20405;-73
2022/07/12 07:19:53;;;;;;;3.70;3.30;;;32.90;71.90;;;;;;5071917;28;20343;-73
2022/07/12 07:22:19;;;;;;;3.70;3.40;;;33.40;67.40;;;;;;5073243;28;20177;-73
2022/07/12 07:24:46;;;;;;;4.10;3.20;;;33.70;64.40;;;;;;5072794;28;20166;-73
2022/07/12 07:27:12;;;;;;;4.40;3.97;;;34.00;65.30;;;;;;5073064;28;20251;-73
2022/07/12 07:32:21;;;;;;;3.70;3.40;;;35.10;59.10;;;;;;5073148;28;20200;-73
2022/07/12 07:34:47;;;;;;;3.67;3.37;;;36.00;55.60;;;;;;5072681;28;20396;-73
2022/07/12 07:37:12;;;;;;;4.13;3.70;;;36.20;52.60;;;;;;5072753;28;20666;-73
2022/07/12 07:39:38;;;;;;;3.23;2.93;;;35.90;52.60;;;;;;5072785;28;20182;-73
2022/07/12 07:42:04;;;;;;;4.37;3.97;;;35.70;53.20;;;;;;5071431;28;20174;-73
2022/07/12 07:44:29;;;;;;;4.23;3.83;;;36.10;52.70;;;;;;5072526;28;20189;-73
2022/07/12 07:46:56;;;;;;;3.80;3.50;;;36.50;52.40;;;;;;5072734;28;20489;-73
2022/07/12 07:49:22;;;;;;;4.80;3.60;;;36.90;50.80;;;;;;5072597;28;20182;-73
2022/07/12 07:51:47;;;;;;;5.43;4.00;;;37.00;51.00;;;;;;5072406;28;20409;-74
2022/07/12 07:54:13;;;;;;;4.90;4.43;;;37.50;50.60;;;;;;5072410;28;20531;-73
2022/07/12 07:56:38;;;;;;;4.23;3.83;;;38.10;48.10;;;;;;5072396;28;20177;-74
2022/07/12 07:59:04;;;;;;;4.60;4.20;;;38.20;48.50;;;;;;5072475;28;20265;-72
2022/07/12 08:01:45;;;;;;;4.80;4.40;;;38.80;47.90;;;;;;5072539;28;20213;-72
2022/07/12 08:04:16;;;;;;;3.80;3.47;;;38.90;47.00;;;;;;5072412;28;20580;-72
2022/07/12 08:06:42;;;;;;;5.40;4.60;;;39.30;47.40;;;;;;5072334;28;20409;-72
2022/07/12 08:09:08;;;;;;;3.93;3.63;;;39.70;45.90;;;;;;5071760;28;20854;-72
2022/07/12 08:11:35;;;;;;;3.80;3.50;;;40.10;44.40;;;;;;5072310;28;20170;-74
2022/07/12 08:14:01;;;;;;;4.10;3.80;;;40.40;44.60;;;;;;5072123;28;20444;-72
2022/07/12 08:16:26;;;;;;;4.30;3.93;;;40.80;44.00;;;;;;5071636;28;20412;-72
2022/07/12 08:18:53;;;;;;;5.13;4.63;;;41.10;42.90;;;;;;5072063;28;20884;-72
2022/07/12 08:21:19;;;;;;;4.07;3.73;;;41.60;42.60;;;;;;5072254;28;20433;-72
2022/07/12 08:23:45;;;;;;;7.50;5.47;;;42.40;41.80;;;;;;5072148;28;20423;-73
2022/07/12 08:26:10;;;;;;;4.17;3.80;;;42.60;41.00;;;;;;5071853;28;20166;-71
2022/07/12 08:28:36;;;;;;;5.23;4.83;;;42.90;39.80;;;;;;5072010;28;20186;-71
2022/07/12 08:31:01;;;;;;;4.40;4.10;;;43.10;40.10;;;;;;5072049;28;20716;-72
2022/07/12 08:33:27;;;;;;;4.30;3.93;;;43.40;39.00;;;;;;5070556;28;20201;-71
2022/07/12 08:35:53;;;;;;;3.70;3.40;;;43.80;37.30;;;;;;5071740;28;20228;-74
2022/07/12 08:38:18;;;;;;;4.47;4.07;;;44.20;37.30;;;;;;5071898;28;20169;-74
2022/07/12 08:40:44;;;;;;;3.93;3.63;;;44.50;36.60;;;;;;5071952;28;20241;-71
2022/07/12 08:43:09;;;;;;;3.77;3.47;;;44.30;35.80;;;;;;5071941;28;20520;-72
2022/07/12 08:45:35;;;;;;;3.87;3.57;;;44.50;35.80;;;;;;5071690;28;20170;-72
2022/07/12 08:48:01;;;;;;;3.03;2.83;;;44.80;34.20;;;;;;5071846;28;20170;-74
2022/07/12 08:50:27;;;;;;;3.37;3.17;;;44.30;34.90;;;;;;5071810;28;20252;-74
2022/07/12 08:52:54;;;;;;;4.20;3.90;;;44.30;34.20;;;;;;5071615;28;20202;-73
2022/07/12 08:55:24;;;;;;;3.73;3.43;;;44.20;33.70;;;;;;5071612;28;20159;-74
2022/07/12 08:57:52;;;;;;;3.80;3.50;;;44.00;34.50;;;;;;5070798;28;20424;-74
2022/07/12 09:00:19;;;;;;;4.77;4.40;;;44.20;35.70;;;;;;5071688;28;20416;-74
2022/07/12 09:03:02;;;;;;;3.77;3.47;;;44.90;34.50;;;;;;5071679;28;20379;-75
2022/07/12 09:05:32;;;;;;;3.30;3.00;;;45.50;34.20;;;;;;5071722;28;20383;-74
2022/07/12 09:08:05;;;;;;;3.87;3.57;;;45.80;33.80;;;;;;5071764;28;20372;-75
2022/07/12 09:10:32;;;;;;;3.07;2.87;;;46.30;33.00;;;;;;5071598;28;20396;-74
2022/07/12 09:12:58;;;;;;;3.60;3.30;;;46.30;31.80;;;;;;5071595;28;20885;-74
2022/07/12 09:15:26;;;;;;;3.33;3.13;;;45.90;32.20;;;;;;5071424;28;20489;-74
2022/07/12 09:18:12;;;;;;;3.33;3.10;;;46.10;32.30;;;;;;5071631;28;20375;-74
2022/07/12 09:20:38;;;;;;;3.10;2.90;;;46.30;31.70;;;;;;5071720;28;20402;-74
2022/07/12 09:23:08;;;;;;;3.33;3.13;;;46.30;32.30;;;;;;5075534;28;20894;-74
2022/07/12 09:25:35;;;;;;;3.87;3.47;;;46.60;32.20;;;;;;5075146;28;20379;-74
2022/07/12 09:28:06;;;;;;;3.47;3.23;;;46.90;31.80;;;;;;5075439;28;20458;-75
2022/07/12 09:30:33;;;;;;;3.97;3.67;;;47.90;31.60;;;;;;5075350;28;20498;-74
2022/07/12 09:36:15;;;;;;;3.43;3.23;;;48.00;29.70;;;;;;5075296;28;20534;-74
2022/07/12 09:38:50;;;;;;;3.57;3.37;;;47.50;30.50;;;;;;5075129;28;20399;-74
2022/07/12 09:41:22;;;;;;;3.50;3.20;;;47.50;30.60;;;;;;5075105;28;20397;-74
2022/07/12 09:43:49;;;;;;;3.10;2.90;;;47.50;29.40;;;;;;5075008;28;20383;-74
2022/07/12 09:46:16;;;;;;;2.90;2.70;;;47.20;29.70;;;;;;5073387;28;20420;-75
2022/07/12 09:48:42;;;;;;;3.20;3.00;;;47.70;30.00;;;;;;5074964;28;20689;-74
2022/07/12 09:51:09;;;;;;;3.73;3.43;;;48.30;29.10;;;;;;5074916;28;20912;-75
2022/07/12 09:53:40;;;;;;;2.83;2.70;;;48.20;29.20;;;;;;5073481;28;20562;-75
2022/07/12 09:56:10;;;;;;;2.63;2.53;;;48.80;29.00;;;;;;5074596;28;20386;-74
2022/07/12 09:58:50;;;;;;;3.03;2.83;;;49.10;28.80;;;;;;5074722;28;20427;-75
2022/07/12 10:01:16;;;;;;;3.13;2.93;;;49.30;28.60;;;;;;5074803;28;20744;-73
2022/07/12 10:03:43;;;;;;;3.40;3.20;;;50.00;27.70;;;;;;5074633;28;20531;-72
2022/07/12 10:06:09;;;;;;;3.10;3.00;;;49.70;27.10;;;;;;5074676;28;20504;-73
2022/07/12 10:08:35;;;;;;;3.17;2.90;;;48.90;27.30;;;;;;5074567;28;20925;-73
2022/07/12 10:11:01;;;;;;;3.10;2.90;;;47.80;27.80;;;;;;5073324;28;20385;-73
2022/07/12 10:13:27;;;;;;;3.07;2.87;;;48.30;28.70;;;;;;5074407;28;20162;-72
2022/07/12 10:16:00;;;;;;;3.50;3.20;;;49.00;28.30;;;;;;5074125;28;20181;-72
2022/07/12 10:18:26;;;;;;;3.80;3.50;;;49.20;28.30;;;;;;5074375;28;20387;-73
2022/07/12 10:20:52;;;;;;;3.77;3.50;;;48.90;27.60;;;;;;5074406;28;20411;-72
2022/07/12 10:23:20;;;;;;;2.83;2.63;;;48.20;27.20;;;;;;5074368;28;20198;-75
2022/07/12 10:25:49;;;;;;;3.33;3.07;;;47.90;27.10;;;;;;5074071;28;20530;-75
2022/07/12 10:28:15;;;;;;;2.50;2.30;;;47.50;28.20;;;;;;5072899;28;20500;-75
2022/07/12 10:30:52;;;;;;;2.60;2.50;;;47.40;27.70;;;;;;5074171;28;20500;-75
2022/07/12 10:33:19;;;;;;;3.53;3.23;;;48.20;27.60;;;;;;5073933;28;20166;-75
2022/07/12 10:36:06;;;;;;;2.57;2.47;;;48.20;27.80;;;;;;5073878;28;20379;-75
2022/07/12 10:38:32;;;;;;;3.00;2.80;;;48.50;27.70;;;;;;5073968;28;20757;-75
2022/07/12 10:41:19;;;;;;;3.10;2.90;;;48.80;28.70;;;;;;5072774;28;20450;-75
2022/07/12 10:46:29;;;;;;;3.10;2.90;;;49.70;28.00;;;;;;5073741;28;20395;-74
2022/07/12 10:49:26;;;;;;;3.37;3.17;;;49.70;27.90;;;;;;5072448;28;21074;-74
2022/07/12 10:52:10;;;;;;;3.10;2.90;;;50.30;27.30;;;;;;5072501;28;20170;-73
2022/07/12 10:54:39;;;;;;;3.53;3.33;;;51.00;27.20;;;;;;5073512;28;20400;-73
2022/07/12 10:57:05;;;;;;;3.37;3.17;;;51.20;26.50;;;;;;5073592;28;20769;-72
2022/07/12 10:59:35;;;;;;;3.40;3.20;;;51.10;26.30;;;;;;5073535;28;20427;-73
2022/07/12 11:02:01;;;;;;;3.33;3.13;;;50.50;26.40;;;;;;5073587;28;20657;-73
2022/07/12 11:04:27;;;;;;;3.57;3.27;;;50.30;26.60;;;;;;5073319;28;20476;-72
2022/07/12 11:06:58;;;;;;;3.77;3.57;;;50.00;26.30;;;;;;5072347;28;20268;-73
2022/07/12 11:09:25;;;;;;;3.23;3.03;;;49.90;26.80;;;;;;5073478;28;20734;-73
2022/07/12 11:11:52;;;;;;;2.83;2.63;;;49.90;26.50;;;;;;5073366;28;20719;-73
2022/07/12 11:14:32;;;;;;;4.10;3.80;;;49.50;25.70;;;;;;5073132;28;20465;-73
2022/07/12 11:16:59;;;;;;;3.13;2.80;;;48.60;26.60;;;;;;5073419;28;20408;-73
2022/07/12 11:19:26;;;;;;;2.50;2.40;;;47.90;26.80;;;;;;5073211;28;20409;-74
2022/07/12 11:21:56;;;;;;;2.80;2.60;;;48.00;26.40;;;;;;5073259;28;20453;-73
2022/07/12 11:24:24;;;;;;;2.80;2.60;;;48.40;27.00;;;;;;5072807;28;20430;-73
2022/07/12 11:26:50;;;;;;;3.00;2.80;;;49.10;27.00;;;;;;5073079;28;20376;-73
2022/07/12 11:29:16;;;;;;;2.70;2.60;;;49.60;27.20;;;;;;5071697;28;20769;-73
2022/07/12 11:31:41;;;;;;;4.93;4.63;;;50.20;26.60;;;;;;5072997;28;20382;-73
2022/07/12 11:34:18;;;;;;;3.57;3.37;;;50.50;27.00;;;;;;5072905;28;20814;-73
2022/07/12 11:36:45;;;;;;;3.60;3.40;;;51.20;27.00;;;;;;5071629;28;20192;-73
2022/07/12 11:39:11;;;;;;;3.80;3.60;;;51.60;25.50;;;;;;5072823;28;20542;-73
2022/07/12 11:41:36;;;;;;;3.07;2.90;;;51.90;26.20;;;;;;5072774;28;20488;-73
2022/07/12 11:44:02;;;;;;;3.27;3.07;;;52.00;25.70;;;;;;5071995;28;20198;-73
2022/07/12 11:46:28;;;;;;;3.10;2.90;;;51.70;25.90;;;;;;5072618;28;20165;-73
2022/07/12 11:48:53;;;;;;;3.20;3.00;;;51.30;25.00;;;;;;5072590;28;20182;-73
2022/07/12 11:51:19;;;;;;;3.10;2.90;;;50.00;25.40;;;;;;5071273;28;20255;-73
2022/07/12 11:53:52;;;;;;;2.90;2.70;;;49.60;26.00;;;;;;5072489;28;20181;-73
2022/07/12 11:56:28;;;;;;;3.27;2.97;;;49.10;26.80;;;;;;5072396;28;20228;-72
2022/07/12 11:58:57;;;;;;;3.33;3.13;;;49.10;26.60;;;;;;5072436;28;20409;-72
2022/07/12 12:01:22;;;;;;;3.17;2.97;;;49.00;25.80;;;;;;5072425;28;20436;-72
2022/07/12 12:03:49;;;;;;;3.03;2.83;;;48.90;26.30;;;;;;5072252;28;20491;-73
2022/07/12 12:06:15;;;;;;;2.80;2.60;;;48.70;26.70;;;;;;5072137;28;20162;-72
2022/07/12 12:08:41;;;;;;;2.80;2.63;;;48.80;27.10;;;;;;5072229;28;20389;-73
2022/07/12 12:11:06;;;;;;;3.10;2.90;;;49.20;27.00;;;;;;5072334;28;20162;-72
2022/07/12 12:13:32;;;;;;;2.80;2.60;;;49.60;26.50;;;;;;5072295;28;20407;-73
2022/07/12 12:16:00;;;;;;;3.77;3.47;;;49.90;26.90;;;;;;5072024;28;20580;-73
2022/07/12 12:18:38;;;;;;;3.40;3.20;;;50.30;26.70;;;;;;5072094;28;20173;-73
2022/07/12 12:21:04;;;;;;;3.20;3.00;;;50.80;26.90;;;;;;5072229;28;20375;-72
2022/07/12 12:23:30;;;;;;;3.10;2.90;;;50.60;25.50;;;;;;5072086;28;20459;-72
2022/07/12 12:26:14;;;;;;;3.30;3.10;;;49.30;25.20;;;;;;5071840;28;20162;-72
2022/07/12 12:28:48;;;;;;;3.70;3.40;;;48.30;25.60;;;;;;5070766;28;20675;-72
2022/07/12 12:31:18;;;;;;;2.53;2.33;;;47.40;27.00;;;;;;5072046;28;20453;-73
2022/07/12 12:33:48;;;;;;;3.83;3.53;;;46.70;27.80;;;;;;5072045;28;20380;-74
2022/07/12 12:36:18;;;;;;;2.90;2.70;;;46.20;28.70;;;;;;5071748;28;20818;-74
2022/07/12 12:38:44;;;;;;;2.80;2.60;;;45.70;29.10;;;;;;5074499;28;20403;-74
2022/07/12 12:41:11;;;;;;;2.80;2.50;;;45.30;28.70;;;;;;5071924;28;20372;-74
2022/07/12 12:43:37;;;;;;;2.40;2.20;;;45.50;28.80;;;;;;5071838;28;20415;-74
2022/07/12 12:46:03;;;;;;;3.33;2.93;;;45.90;28.20;;;;;;5071770;28;20741;-74
2022/07/12 12:48:30;;;;;;;2.67;2.47;;;46.30;27.50;;;;;;5071779;28;20421;-74
2022/07/12 12:51:11;;;;;;;2.67;2.47;;;46.20;28.10;;;;;;5070597;28;20166;-74
2022/07/12 12:53:39;;;;;;;2.20;2.10;;;46.40;27.50;;;;;;5071767;28;20430;-74
2022/07/12 12:56:12;;;;;;;2.57;2.37;;;46.50;27.50;;;;;;5074147;28;20371;-74